createdAt,value
2023-11-25T00:00:23.194Z,4.925842285
2023-11-25T00:01:25.211Z,4.966125488
2023-11-25T00:02:26.806Z,4.98626709
2023-11-25T00:03:28.313Z,4.966125488
2023-11-25T00:04:30.492Z,4.98626709
2023-11-25T00:05:32.057Z,5.006408691
2023-11-25T00:06:34.056Z,5.036621094
2023-11-25T00:07:35.615Z,5.036621094
2023-11-25T00:08:37.699Z,5.056762695
2023-11-25T00:09:39.119Z,5.137329102
2023-11-25T00:11:21.783Z,5.147399902
2023-11-25T00:12:13.299Z,5.147399902
2023-11-25T00:13:15.175Z,5.1171875
2023-11-25T00:14:16.860Z,5.1171875
2023-11-25T00:15:19.124Z,5.107116699
2023-11-25T00:16:21.168Z,5.107116699
2023-11-25T00:17:23.191Z,5.137329102
2023-11-25T00:18:24.753Z,5.167541504
2023-11-25T00:19:26.566Z,5.167541504
2023-11-25T00:20:28.140Z,5.197753906
2023-11-25T00:21:29.766Z,5.227966309
2023-11-25T00:22:31.599Z,5.238037109
2023-11-25T00:23:33.128Z,5.238037109
2023-11-25T00:24:35.131Z,5.258178711
2023-11-25T00:25:36.686Z,5.258178711
2023-11-25T00:26:38.102Z,5.217895508
2023-11-25T00:28:10.350Z,5.137329102
2023-11-25T00:29:12.403Z,5.086975098
2023-11-25T00:30:14.251Z,5.076904297
2023-11-25T00:31:16.380Z,4.98626709
2023-11-25T00:32:18.105Z,4.905700684
2023-11-25T00:33:20.057Z,4.875488281
2023-11-25T00:34:22.163Z,4.85534668
2023-11-25T00:35:25.165Z,4.85534668
2023-11-25T00:36:26.725Z,4.875488281
2023-11-25T00:37:29.046Z,4.875488281
2023-11-25T00:38:30.676Z,4.875488281
2023-11-25T00:39:32.252Z,4.825134277
2023-11-25T00:40:33.564Z,4.804992676
2023-11-25T00:41:35.502Z,4.825134277
2023-11-25T00:42:37.135Z,4.825134277
2023-11-25T00:43:38.829Z,4.895629883
2023-11-25T00:45:11.859Z,4.925842285
2023-11-25T00:46:13.644Z,4.966125488
2023-11-25T00:47:15.204Z,4.98626709
2023-11-25T00:48:16.626Z,4.98626709
2023-11-25T00:49:18.722Z,4.956054688
2023-11-25T00:50:20.145Z,4.935913086
2023-11-25T00:51:21.862Z,4.925842285
2023-11-25T00:52:23.579Z,4.925842285
2023-11-25T00:53:25.178Z,4.905700684
2023-11-25T00:54:27.061Z,4.85534668
2023-11-25T00:55:28.652Z,4.835205078
2023-11-25T00:56:30.137Z,4.835205078
2023-11-25T00:57:31.657Z,4.835205078
2023-11-25T00:58:33.432Z,4.825134277
2023-11-25T00:59:35.094Z,4.825134277
2023-11-25T01:00:36.608Z,4.794921875
2023-11-25T01:01:38.406Z,4.754638672
2023-11-25T01:03:11.615Z,4.714355469
2023-11-25T01:04:13.192Z,4.714355469
2023-11-25T01:05:14.678Z,4.684143066
2023-11-25T01:06:16.654Z,4.674072266
2023-11-25T01:07:18.214Z,4.653930664
2023-11-25T01:08:19.939Z,4.653930664
2023-11-25T01:09:22.158Z,4.643859863
2023-11-25T01:10:23.683Z,4.623718262
2023-11-25T01:11:25.157Z,4.593505859
2023-11-25T01:12:26.596Z,4.533081055
2023-11-25T01:13:28.819Z,4.442443848
2023-11-25T01:14:29.813Z,4.382019043
2023-11-25T01:15:32.168Z,4.392089844
2023-11-25T01:16:33.769Z,4.392089844
2023-11-25T01:17:35.410Z,4.442443848
2023-11-25T01:18:37.050Z,4.462585449
2023-11-25T01:19:39.639Z,4.422302246
2023-11-25T01:21:12.135Z,4.392089844
2023-11-25T01:22:14.671Z,4.382019043
2023-11-25T01:23:16.191Z,4.361877441
2023-11-25T01:24:17.647Z,4.291381836
2023-11-25T01:25:19.681Z,4.241027832
2023-11-25T01:26:51.268Z,4.170532227
2023-11-25T01:28:25.207Z,4.160461426
2023-11-25T01:29:26.647Z,4.160461426
2023-11-25T01:30:28.607Z,4.160461426
2023-11-25T01:31:30.246Z,4.170532227
2023-11-25T01:32:31.951Z,4.241027832
2023-11-25T01:33:33.784Z,4.251098633
2023-11-25T01:34:35.998Z,4.261169434
2023-11-25T01:35:37.772Z,4.351806641
2023-11-25T01:37:10.946Z,4.382019043
2023-11-25T01:38:12.682Z,4.382019043
2023-11-25T01:39:13.656Z,4.382019043
2023-11-25T01:40:15.414Z,4.382019043
2023-11-25T01:41:17.152Z,4.382019043
2023-11-25T01:42:19.170Z,4.321594238
2023-11-25T01:43:20.723Z,4.311523438
2023-11-25T01:44:22.907Z,4.281311035
2023-11-25T01:45:24.727Z,4.261169434
2023-11-25T01:46:26.162Z,4.261169434
2023-11-25T01:47:28.139Z,4.281311035
2023-11-25T01:48:29.688Z,4.321594238
2023-11-25T01:49:32.308Z,4.351806641
2023-11-25T01:50:33.673Z,4.422302246
2023-11-25T01:51:35.680Z,4.392089844
2023-11-25T01:52:37.244Z,4.422302246
2023-11-25T01:53:38.922Z,4.432373047
2023-11-25T01:55:11.713Z,4.432373047
2023-11-25T01:56:13.638Z,4.442443848
2023-11-25T01:57:15.134Z,4.422302246
2023-11-25T01:58:16.933Z,4.432373047
2023-11-25T01:59:18.627Z,4.462585449
2023-11-25T02:00:20.505Z,4.492797852
2023-11-25T02:01:22.177Z,4.533081055
2023-11-25T02:02:23.846Z,4.573364258
2023-11-25T02:03:25.675Z,4.613647461
2023-11-25T02:04:27.235Z,4.643859863
2023-11-25T02:05:28.390Z,4.674072266
2023-11-25T02:06:30.128Z,4.674072266
2023-11-25T02:07:32.112Z,4.684143066
2023-11-25T02:08:33.553Z,4.714355469
2023-11-25T02:09:36.090Z,4.714355469
2023-11-25T02:10:37.669Z,4.623718262
2023-11-25T02:12:10.642Z,4.512939453
2023-11-25T02:13:12.714Z,4.422302246
2023-11-25T02:14:14.651Z,4.321594238
2023-11-25T02:15:16.256Z,4.251098633
2023-11-25T02:16:17.565Z,4.241027832
2023-11-25T02:17:18.577Z,4.180603027
2023-11-25T02:18:19.840Z,4.180603027
2023-11-25T02:19:21.661Z,4.170532227
2023-11-25T02:20:23.654Z,4.170532227
2023-11-25T02:21:25.624Z,4.110107422
2023-11-25T02:22:27.180Z,4.100036621
2023-11-25T02:23:29.131Z,4.069824219
2023-11-25T02:24:30.629Z,4.059753418
2023-11-25T02:25:32.674Z,4.039611816
2023-11-25T02:26:34.171Z,4.019470215
2023-11-25T02:27:35.929Z,3.999328613
2023-11-25T02:28:37.652Z,3.989257813
2023-11-25T02:30:10.650Z,3.979187012
2023-11-25T02:31:11.711Z,3.948974609
2023-11-25T02:32:14.324Z,3.928833008
2023-11-25T02:33:16.186Z,3.918762207
2023-11-25T02:34:17.200Z,3.888549805
2023-11-25T02:35:18.587Z,3.878479004
2023-11-25T02:36:20.668Z,3.918762207
2023-11-25T02:37:23.200Z,3.898620605
2023-11-25T02:38:24.103Z,3.888549805
2023-11-25T02:39:26.446Z,3.838195801
2023-11-25T02:40:28.115Z,3.838195801
2023-11-25T02:41:30.185Z,3.878479004
2023-11-25T02:42:31.608Z,3.888549805
2023-11-25T02:43:33.148Z,3.918762207
2023-11-25T02:44:34.699Z,3.928833008
2023-11-25T02:45:36.378Z,3.979187012
2023-11-25T02:47:09.696Z,3.948974609
2023-11-25T02:48:11.781Z,3.948974609
2023-11-25T02:49:13.186Z,3.898620605
2023-11-25T02:50:15.536Z,3.878479004
2023-11-25T02:51:17.156Z,3.858337402
2023-11-25T02:52:18.677Z,3.878479004
2023-11-25T02:53:20.462Z,3.838195801
2023-11-25T02:54:22.224Z,3.807983398
2023-11-25T02:55:24.667Z,3.797912598
2023-11-25T02:56:26.046Z,3.797912598
2023-11-25T02:57:28.046Z,3.777770996
2023-11-25T02:58:29.703Z,3.797912598
2023-11-25T02:59:31.954Z,3.767700195
2023-11-25T03:00:33.660Z,3.777770996
2023-11-25T03:01:35.500Z,3.777770996
2023-11-25T03:02:37.291Z,3.747558594
2023-11-25T03:04:09.960Z,3.747558594
2023-11-25T03:05:11.649Z,3.747558594
2023-11-25T03:06:13.524Z,3.747558594
2023-11-25T03:07:15.352Z,3.747558594
2023-11-25T03:08:17.506Z,3.747558594
2023-11-25T03:09:19.126Z,3.747558594
2023-11-25T03:10:20.665Z,3.767700195
2023-11-25T03:11:22.677Z,3.767700195
2023-11-25T03:12:24.143Z,3.767700195
2023-11-25T03:13:26.538Z,3.797912598
2023-11-25T03:14:28.112Z,3.818054199
2023-11-25T03:15:29.701Z,3.838195801
2023-11-25T03:16:32.264Z,3.858337402
2023-11-25T03:17:33.670Z,3.898620605
2023-11-25T03:18:35.659Z,3.948974609
2023-11-25T03:19:37.208Z,4.019470215
2023-11-25T03:21:09.487Z,4.039611816
2023-11-25T03:22:11.691Z,4.019470215
2023-11-25T03:23:13.657Z,4.019470215
2023-11-25T03:24:15.226Z,4.069824219
2023-11-25T03:25:17.090Z,4.100036621
2023-11-25T03:26:18.539Z,4.140319824
2023-11-25T03:27:20.664Z,4.200744629
2023-11-25T03:28:22.133Z,4.241027832
2023-11-25T03:29:23.653Z,4.251098633
2023-11-25T03:30:25.637Z,4.200744629
2023-11-25T03:31:27.125Z,4.251098633
2023-11-25T03:32:28.323Z,4.291381836
2023-11-25T03:33:29.405Z,4.291381836
2023-11-25T03:34:31.493Z,4.311523438
2023-11-25T03:35:33.246Z,4.261169434
2023-11-25T03:36:34.655Z,4.069824219
2023-11-25T03:37:36.711Z,3.777770996
2023-11-25T03:39:09.129Z,3.707275391
2023-11-25T03:40:11.664Z,3.69720459
2023-11-25T03:41:13.148Z,3.636779785
2023-11-25T03:42:44.961Z,3.666992188
2023-11-25T03:44:17.647Z,3.626708984
2023-11-25T03:45:19.665Z,3.596496582
2023-11-25T03:46:21.185Z,3.56628418
2023-11-25T03:47:22.936Z,3.536071777
2023-11-25T03:48:24.722Z,3.515930176
2023-11-25T03:49:27.028Z,3.526000977
2023-11-25T03:50:28.678Z,3.515930176
2023-11-25T03:51:30.216Z,3.485717773
2023-11-25T03:52:32.205Z,3.485717773
2023-11-25T03:53:33.602Z,3.515930176
2023-11-25T03:54:35.653Z,3.536071777
2023-11-25T03:55:38.067Z,3.596496582
2023-11-25T03:57:11.198Z,3.586425781
2023-11-25T03:58:12.626Z,3.586425781
2023-11-25T03:59:14.642Z,3.626708984
2023-11-25T04:00:16.595Z,3.626708984
2023-11-25T04:01:18.099Z,3.666992188
2023-11-25T04:02:19.860Z,3.677062988
2023-11-25T04:03:21.540Z,3.707275391
2023-11-25T04:04:23.162Z,3.767700195
2023-11-25T04:05:54.845Z,3.878479004
2023-11-25T04:07:28.248Z,3.948974609
2023-11-25T04:08:29.696Z,3.979187012
2023-11-25T04:09:31.626Z,3.979187012
2023-11-25T04:10:33.154Z,3.989257813
2023-11-25T04:11:35.103Z,3.999328613
2023-11-25T04:12:36.550Z,3.948974609
2023-11-25T04:14:09.626Z,3.948974609
2023-11-25T04:15:11.150Z,3.918762207
2023-11-25T04:16:13.004Z,3.878479004
2023-11-25T04:17:14.751Z,3.858337402
2023-11-25T04:18:16.502Z,3.888549805
2023-11-25T04:19:18.201Z,3.878479004
2023-11-25T04:20:19.646Z,3.878479004
2023-11-25T04:21:21.280Z,3.878479004
2023-11-25T04:22:22.759Z,3.888549805
2023-11-25T04:23:23.923Z,3.898620605
2023-11-25T04:24:25.543Z,3.95904541
2023-11-25T04:25:27.738Z,3.989257813
2023-11-25T04:26:29.557Z,3.999328613
2023-11-25T04:27:31.109Z,3.989257813
2023-11-25T04:28:33.124Z,3.989257813
2023-11-25T04:29:34.603Z,3.979187012
2023-11-25T04:30:36.282Z,3.95904541
2023-11-25T04:32:09.301Z,3.948974609
2023-11-25T04:33:11.175Z,3.95904541
2023-11-25T04:34:12.637Z,3.948974609
2023-11-25T04:35:14.634Z,3.928833008
2023-11-25T04:36:19.157Z,3.928833008
2023-11-25T04:37:18.578Z,3.95904541
2023-11-25T04:38:20.116Z,3.979187012
2023-11-25T04:39:22.166Z,3.989257813
2023-11-25T04:40:23.979Z,3.979187012
2023-11-25T04:41:25.670Z,3.948974609
2023-11-25T04:42:27.502Z,3.898620605
2023-11-25T04:43:29.186Z,3.888549805
2023-11-25T04:44:30.673Z,3.878479004
2023-11-25T04:45:32.624Z,3.878479004
2023-11-25T04:46:34.161Z,3.888549805
2023-11-25T04:47:36.684Z,3.888549805
2023-11-25T04:49:09.051Z,3.888549805
2023-11-25T04:50:11.627Z,3.878479004
2023-11-25T04:51:13.187Z,3.878479004
2023-11-25T04:52:15.188Z,3.878479004
2023-11-25T04:53:16.633Z,3.858337402
2023-11-25T04:54:18.636Z,3.838195801
2023-11-25T04:55:20.190Z,3.838195801
2023-11-25T04:56:21.786Z,3.858337402
2023-11-25T04:57:23.622Z,3.858337402
2023-11-25T04:58:25.303Z,3.878479004
2023-11-25T04:59:26.467Z,3.858337402
2023-11-25T05:00:28.089Z,3.888549805
2023-11-25T05:01:30.143Z,3.878479004
2023-11-25T05:02:31.875Z,3.878479004
2023-11-25T05:03:33.648Z,3.888549805
2023-11-25T05:04:35.800Z,3.918762207
2023-11-25T05:05:37.162Z,3.918762207
2023-11-25T05:07:10.165Z,3.898620605
2023-11-25T05:08:11.700Z,3.898620605
2023-11-25T05:09:13.561Z,3.888549805
2023-11-25T05:10:15.192Z,3.888549805
2023-11-25T05:11:16.665Z,3.878479004
2023-11-25T05:12:18.667Z,3.858337402
2023-11-25T05:13:20.106Z,3.858337402
2023-11-25T05:14:21.918Z,3.838195801
2023-11-25T05:15:23.971Z,3.858337402
2023-11-25T05:16:25.543Z,3.818054199
2023-11-25T05:17:27.456Z,3.807983398
2023-11-25T05:18:29.604Z,3.797912598
2023-11-25T05:19:31.625Z,3.797912598
2023-11-25T05:20:33.368Z,3.818054199
2023-11-25T05:21:35.198Z,3.838195801
2023-11-25T05:23:39.212Z,3.807983398
2023-11-25T05:25:12.615Z,3.797912598
2023-11-25T05:26:14.142Z,3.747558594
2023-11-25T05:27:15.061Z,3.767700195
2023-11-25T05:28:16.750Z,3.767700195
2023-11-25T05:29:18.647Z,3.777770996
2023-11-25T05:30:20.513Z,3.767700195
2023-11-25T05:31:22.164Z,3.737487793
2023-11-25T05:32:23.694Z,3.737487793
2023-11-25T05:33:25.336Z,3.737487793
2023-11-25T05:34:27.164Z,3.767700195
2023-11-25T05:35:29.160Z,3.767700195
2023-11-25T05:36:31.299Z,3.797912598
2023-11-25T05:37:33.512Z,3.797912598
2023-11-25T05:38:34.547Z,3.777770996
2023-11-25T05:39:36.130Z,3.838195801
2023-11-25T05:41:09.115Z,3.858337402
2023-11-25T05:42:10.642Z,3.898620605
2023-11-25T05:43:12.722Z,3.928833008
2023-11-25T05:44:14.110Z,3.979187012
2023-11-25T05:45:15.908Z,3.979187012
2023-11-25T05:46:17.729Z,3.999328613
2023-11-25T05:47:19.549Z,4.039611816
2023-11-25T05:48:21.123Z,4.069824219
2023-11-25T05:49:22.678Z,4.130249023
2023-11-25T05:50:24.019Z,4.130249023
2023-11-25T05:51:26.081Z,4.160461426
2023-11-25T05:52:28.078Z,4.160461426
2023-11-25T05:53:29.612Z,4.160461426
2023-11-25T05:54:31.456Z,4.180603027
2023-11-25T05:55:33.081Z,4.200744629
2023-11-25T05:56:34.565Z,4.261169434
2023-11-25T05:57:36.837Z,4.321594238
2023-11-25T05:59:09.952Z,4.311523438
2023-11-25T06:00:11.631Z,4.321594238
2023-11-25T06:01:13.597Z,4.281311035
2023-11-25T06:02:15.704Z,4.281311035
2023-11-25T06:03:17.758Z,4.241027832
2023-11-25T06:04:21.930Z,4.160461426
2023-11-25T06:05:21.238Z,4.160461426
2023-11-25T06:06:23.138Z,4.160461426
2023-11-25T06:07:24.793Z,4.160461426
2023-11-25T06:08:26.835Z,4.160461426
2023-11-25T06:09:28.654Z,4.140319824
2023-11-25T06:10:30.621Z,4.140319824
2023-11-25T06:12:02.727Z,4.200744629
2023-11-25T06:13:35.895Z,4.241027832
2023-11-25T06:15:08.266Z,4.251098633
2023-11-25T06:16:10.185Z,4.251098633
2023-11-25T06:17:12.094Z,4.200744629
2023-11-25T06:18:14.814Z,4.200744629
2023-11-25T06:19:15.522Z,4.160461426
2023-11-25T06:20:17.536Z,4.140319824
2023-11-25T06:21:19.125Z,4.130249023
2023-11-25T06:22:21.166Z,4.140319824
2023-11-25T06:23:23.123Z,4.140319824
2023-11-25T06:24:24.801Z,4.130249023
2023-11-25T06:25:27.313Z,4.170532227
2023-11-25T06:26:29.162Z,4.160461426
2023-11-25T06:27:30.647Z,4.160461426
2023-11-25T06:28:32.691Z,4.170532227
2023-11-25T06:29:34.094Z,4.170532227
2023-11-25T06:30:35.984Z,4.130249023
2023-11-25T06:32:09.147Z,4.100036621
2023-11-25T06:33:10.985Z,4.110107422
2023-11-25T06:34:12.862Z,4.110107422
2023-11-25T06:35:14.485Z,4.130249023
2023-11-25T06:36:16.199Z,4.110107422
2023-11-25T06:37:17.676Z,4.07989502
2023-11-25T06:38:19.175Z,4.059753418
2023-11-25T06:39:20.647Z,4.059753418
2023-11-25T06:40:22.672Z,4.039611816
2023-11-25T06:41:24.326Z,4.069824219
2023-11-25T06:42:26.129Z,4.059753418
2023-11-25T06:43:27.677Z,4.069824219
2023-11-25T06:44:29.396Z,4.059753418
2023-11-25T06:45:31.123Z,4.069824219
2023-11-25T06:46:32.609Z,4.069824219
2023-11-25T06:47:35.171Z,4.019470215
2023-11-25T06:49:08.528Z,3.999328613
2023-11-25T06:50:10.628Z,4.019470215
2023-11-25T06:51:12.136Z,3.999328613
2023-11-25T06:52:14.251Z,3.999328613
2023-11-25T06:53:15.659Z,4.019470215
2023-11-25T06:54:17.878Z,4.019470215
2023-11-25T06:55:19.665Z,3.999328613
2023-11-25T06:56:21.699Z,3.999328613
2023-11-25T06:57:23.263Z,4.019470215
2023-11-25T06:58:25.139Z,4.059753418
2023-11-25T06:59:27.134Z,4.07989502
2023-11-25T07:00:28.321Z,4.110107422
2023-11-25T07:01:30.695Z,4.110107422
2023-11-25T07:02:32.742Z,4.100036621
2023-11-25T07:03:34.205Z,4.100036621
2023-11-25T07:04:35.653Z,4.07989502
2023-11-25T07:06:09.153Z,4.100036621
2023-11-25T07:07:10.669Z,4.059753418
2023-11-25T07:08:12.600Z,4.019470215
2023-11-25T07:09:14.164Z,3.999328613
2023-11-25T07:10:16.614Z,3.989257813
2023-11-25T07:11:18.126Z,3.999328613
2023-11-25T07:12:19.654Z,3.989257813
2023-11-25T07:13:21.675Z,3.989257813
2023-11-25T07:14:23.169Z,4.019470215
2023-11-25T07:15:25.379Z,4.019470215
2023-11-25T07:16:27.758Z,4.069824219
2023-11-25T07:17:30.215Z,4.07989502
2023-11-25T07:18:31.703Z,4.130249023
2023-11-25T07:19:33.634Z,4.140319824
2023-11-25T07:20:35.103Z,4.160461426
2023-11-25T07:22:07.938Z,4.160461426
2023-11-25T07:23:09.620Z,4.170532227
2023-11-25T07:24:11.162Z,4.170532227
2023-11-25T07:25:13.387Z,4.170532227
2023-11-25T07:26:14.638Z,4.180603027
2023-11-25T07:27:16.636Z,4.241027832
2023-11-25T07:28:18.317Z,4.241027832
2023-11-25T07:29:20.556Z,4.261169434
2023-11-25T07:30:22.184Z,4.311523438
2023-11-25T07:31:23.217Z,4.321594238
2023-11-25T07:32:25.030Z,4.34173584
2023-11-25T07:33:26.735Z,4.361877441
2023-11-25T07:34:28.937Z,4.351806641
2023-11-25T07:35:30.699Z,4.351806641
2023-11-25T07:36:32.541Z,4.34173584
2023-11-25T07:37:34.409Z,4.251098633
2023-11-25T07:39:06.867Z,4.21081543
2023-11-25T07:40:09.651Z,4.170532227
2023-11-25T07:41:11.613Z,4.160461426
2023-11-25T07:42:13.125Z,4.130249023
2023-11-25T07:43:15.028Z,4.100036621
2023-11-25T07:44:16.625Z,4.07989502
2023-11-25T07:45:18.994Z,4.07989502
2023-11-25T07:46:20.779Z,4.100036621
2023-11-25T07:47:22.605Z,4.110107422
2023-11-25T07:48:53.764Z,4.07989502
2023-11-25T07:50:26.826Z,4.07989502
2023-11-25T07:51:28.164Z,4.069824219
2023-11-25T07:52:29.658Z,4.069824219
2023-11-25T07:53:31.774Z,4.069824219
2023-11-25T07:54:33.597Z,4.110107422
2023-11-25T07:55:35.669Z,4.200744629
2023-11-25T07:57:08.165Z,4.241027832
2023-11-25T07:58:10.127Z,4.281311035
2023-11-25T07:59:11.086Z,4.321594238
2023-11-25T08:00:13.058Z,4.351806641
2023-11-25T08:01:14.628Z,4.392089844
2023-11-25T08:02:16.312Z,4.442443848
2023-11-25T08:03:17.706Z,4.492797852
2023-11-25T08:04:19.329Z,4.502868652
2023-11-25T08:05:21.805Z,4.502868652
2023-11-25T08:06:24.660Z,4.502868652
2023-11-25T08:07:25.084Z,4.492797852
2023-11-25T08:08:26.624Z,4.502868652
2023-11-25T08:09:28.134Z,4.502868652
2023-11-25T08:10:30.235Z,4.47265625
2023-11-25T08:11:31.732Z,4.422302246
2023-11-25T08:12:32.950Z,4.422302246
2023-11-25T08:13:34.677Z,4.382019043
2023-11-25T08:15:07.653Z,4.34173584
2023-11-25T08:16:09.189Z,4.34173584
2023-11-25T08:17:11.324Z,4.311523438
2023-11-25T08:18:12.717Z,4.251098633
2023-11-25T08:19:14.608Z,4.241027832
2023-11-25T08:20:16.153Z,4.200744629
2023-11-25T08:21:17.614Z,4.21081543
2023-11-25T08:22:19.705Z,4.241027832
2023-11-25T08:23:21.156Z,4.281311035
2023-11-25T08:24:22.892Z,4.291381836
2023-11-25T08:25:24.735Z,4.321594238
2023-11-25T08:26:26.122Z,4.291381836
2023-11-25T08:27:58.293Z,4.311523438
2023-11-25T08:29:31.539Z,4.311523438
2023-11-25T08:30:33.112Z,4.291381836
2023-11-25T08:31:34.709Z,4.321594238
2023-11-25T08:33:07.152Z,4.321594238
2023-11-25T08:34:09.094Z,4.291381836
2023-11-25T08:35:11.262Z,4.311523438
2023-11-25T08:36:12.777Z,4.321594238
2023-11-25T08:37:14.617Z,4.281311035
2023-11-25T08:38:16.176Z,4.261169434
2023-11-25T08:39:17.910Z,4.281311035
2023-11-25T08:40:19.727Z,4.281311035
2023-11-25T08:41:21.147Z,4.291381836
2023-11-25T08:42:23.096Z,4.311523438
2023-11-25T08:43:54.787Z,4.382019043
2023-11-25T08:45:28.654Z,4.432373047
2023-11-25T08:46:30.199Z,4.462585449
2023-11-25T08:47:32.151Z,4.502868652
2023-11-25T08:48:33.671Z,4.502868652
2023-11-25T08:50:06.703Z,4.47265625
2023-11-25T08:51:09.198Z,4.492797852
2023-11-25T08:52:09.891Z,4.47265625
2023-11-25T08:53:11.631Z,4.442443848
2023-11-25T08:54:13.534Z,4.422302246
2023-11-25T08:55:15.120Z,4.392089844
2023-11-25T08:56:16.626Z,4.392089844
2023-11-25T08:57:18.716Z,4.382019043
2023-11-25T08:58:20.601Z,4.392089844
2023-11-25T08:59:22.646Z,4.422302246
2023-11-25T09:00:24.123Z,4.442443848
2023-11-25T09:01:26.622Z,4.462585449
2023-11-25T09:02:28.698Z,4.47265625
2023-11-25T09:03:30.482Z,4.47265625
2023-11-25T09:04:32.084Z,4.462585449
2023-11-25T09:05:33.677Z,4.442443848
2023-11-25T09:07:06.636Z,4.432373047
2023-11-25T09:08:08.163Z,4.361877441
2023-11-25T09:09:09.884Z,4.291381836
2023-11-25T09:10:11.623Z,4.241027832
2023-11-25T09:11:13.656Z,4.180603027
2023-11-25T09:12:15.643Z,4.170532227
2023-11-25T09:13:17.579Z,4.170532227
2023-11-25T09:14:19.140Z,4.160461426
2023-11-25T09:15:20.633Z,4.180603027
2023-11-25T09:16:22.218Z,4.200744629
2023-11-25T09:17:23.702Z,4.241027832
2023-11-25T09:18:24.945Z,4.261169434
2023-11-25T09:19:26.717Z,4.281311035
2023-11-25T09:20:28.908Z,4.34173584
2023-11-25T09:21:30.606Z,4.382019043
2023-11-25T09:22:32.795Z,4.492797852
2023-11-25T09:23:34.569Z,4.613647461
2023-11-25T09:25:07.649Z,4.623718262
2023-11-25T09:26:09.111Z,4.623718262
2023-11-25T09:27:10.956Z,4.623718262
2023-11-25T09:28:12.506Z,4.563293457
2023-11-25T09:29:15.561Z,4.462585449
2023-11-25T09:30:17.140Z,4.382019043
2023-11-25T09:31:18.642Z,4.311523438
2023-11-25T09:32:20.827Z,4.241027832
2023-11-25T09:33:23.094Z,4.140319824
2023-11-25T09:34:25.187Z,4.07989502
2023-11-25T09:35:26.638Z,3.989257813
2023-11-25T09:36:28.620Z,3.898620605
2023-11-25T09:37:30.340Z,3.818054199
2023-11-25T09:38:32.473Z,3.797912598
2023-11-25T09:39:35.113Z,3.838195801
2023-11-25T09:41:07.953Z,3.878479004
2023-11-25T09:42:09.750Z,3.878479004
2023-11-25T09:43:11.919Z,3.838195801
2023-11-25T09:44:13.624Z,3.878479004
2023-11-25T09:45:15.483Z,3.918762207
2023-11-25T09:46:16.489Z,3.948974609
2023-11-25T09:47:17.772Z,3.999328613
2023-11-25T09:48:19.649Z,4.039611816
2023-11-25T09:49:21.607Z,4.07989502
2023-11-25T09:50:23.612Z,4.110107422
2023-11-25T09:51:25.142Z,4.160461426
2023-11-25T09:52:27.181Z,4.200744629
2023-11-25T09:53:28.646Z,4.261169434
2023-11-25T09:54:32.594Z,4.311523438
2023-11-25T09:55:32.224Z,4.34173584
2023-11-25T09:56:33.883Z,4.442443848
2023-11-25T09:58:06.636Z,4.512939453
2023-11-25T09:59:08.818Z,4.573364258
2023-11-25T10:00:10.726Z,4.593505859
2023-11-25T10:01:11.861Z,4.623718262
2023-11-25T10:02:13.725Z,4.674072266
2023-11-25T10:03:15.628Z,4.72442627
2023-11-25T10:04:17.266Z,4.774780273
2023-11-25T10:05:18.645Z,4.804992676
2023-11-25T10:06:20.607Z,4.825134277
2023-11-25T10:07:22.210Z,4.86541748
2023-11-25T10:08:24.508Z,4.925842285
2023-11-25T10:09:26.153Z,4.966125488
2023-11-25T10:10:28.240Z,5.006408691
2023-11-25T10:11:29.668Z,5.056762695
2023-11-25T10:12:32.238Z,5.086975098
2023-11-25T10:13:34.139Z,5.147399902
2023-11-25T10:15:07.724Z,5.167541504
2023-11-25T10:16:09.210Z,5.187683105
2023-11-25T10:17:11.105Z,5.238037109
2023-11-25T10:18:12.603Z,5.238037109
2023-11-25T10:19:14.607Z,5.298461914
2023-11-25T10:20:17.660Z,5.318603516
2023-11-25T10:21:17.899Z,5.328674316
2023-11-25T10:22:19.767Z,5.36895752
2023-11-25T10:23:21.982Z,5.36895752
2023-11-25T10:24:23.644Z,5.37902832
2023-11-25T10:25:25.392Z,5.409240723
2023-11-25T10:26:27.075Z,5.439453125
2023-11-25T10:27:28.560Z,5.449523926
2023-11-25T10:28:30.406Z,5.479736328
2023-11-25T10:29:33.150Z,5.469665527
2023-11-25T10:31:05.910Z,5.449523926
2023-11-25T10:32:08.124Z,5.449523926
2023-11-25T10:33:10.100Z,5.419311523
2023-11-25T10:34:11.706Z,5.399169922
2023-11-25T10:35:13.616Z,5.36895752
2023-11-25T10:36:15.141Z,5.36895752
2023-11-25T10:37:19.106Z,5.328674316
2023-11-25T10:38:18.724Z,5.298461914
2023-11-25T10:39:20.189Z,5.217895508
2023-11-25T10:40:22.187Z,5.167541504
2023-11-25T10:41:23.645Z,5.1171875
2023-11-25T10:42:25.652Z,5.137329102
2023-11-25T10:43:58.694Z,5.1171875
2023-11-25T10:45:30.957Z,5.056762695
2023-11-25T10:46:32.614Z,5.016479492
2023-11-25T10:48:06.163Z,4.98626709
2023-11-25T10:49:07.612Z,4.935913086
2023-11-25T10:50:09.525Z,4.925842285
2023-11-25T10:51:11.181Z,4.956054688
2023-11-25T10:52:12.660Z,4.98626709
2023-11-25T10:53:14.437Z,5.006408691
2023-11-25T10:54:16.115Z,5.006408691
2023-11-25T10:55:17.652Z,5.016479492
2023-11-25T10:56:19.452Z,5.046691895
2023-11-25T10:57:21.184Z,5.036621094
2023-11-25T10:58:23.889Z,5.016479492
2023-11-25T10:59:25.584Z,5.006408691
2023-11-25T11:00:27.168Z,5.016479492
2023-11-25T11:01:29.160Z,5.016479492
2023-11-25T11:02:31.714Z,5.046691895
2023-11-25T11:03:33.637Z,5.137329102
2023-11-25T11:05:06.154Z,5.147399902
2023-11-25T11:06:38.233Z,5.147399902
2023-11-25T11:08:11.239Z,5.1171875
2023-11-25T11:09:13.026Z,5.107116699
2023-11-25T11:10:14.609Z,5.076904297
2023-11-25T11:11:16.217Z,5.056762695
2023-11-25T11:12:18.831Z,5.076904297
2023-11-25T11:13:20.578Z,5.107116699
2023-11-25T11:14:21.508Z,5.076904297
2023-11-25T11:15:24.420Z,5.107116699
2023-11-25T11:16:25.522Z,5.137329102
2023-11-25T11:17:26.533Z,5.167541504
2023-11-25T11:18:28.194Z,5.187683105
2023-11-25T11:19:30.132Z,5.258178711
2023-11-25T11:20:32.623Z,5.328674316
2023-11-25T11:22:04.866Z,5.36895752
2023-11-25T11:23:06.539Z,5.399169922
2023-11-25T11:24:08.243Z,5.449523926
2023-11-25T11:25:11.124Z,5.469665527
2023-11-25T11:26:12.619Z,5.550231934
2023-11-25T11:27:15.795Z,5.590515137
2023-11-25T11:28:16.103Z,5.650939941
2023-11-25T11:29:17.045Z,5.691223145
2023-11-25T11:30:17.927Z,5.771789551
2023-11-25T11:31:19.930Z,5.812072754
2023-11-25T11:32:21.702Z,5.882568359
2023-11-25T11:33:23.611Z,5.993347168
2023-11-25T11:34:25.109Z,6.083984375
2023-11-25T11:35:26.611Z,6.174621582
2023-11-25T11:36:28.457Z,6.204833984
2023-11-25T11:37:30.421Z,6.265258789
2023-11-25T11:38:32.420Z,6.325683594